sensor_id;sensor_type;location;lat;lon;timestamp;P1;durP1;ratioP1;P2;durP2;ratioP2
50393;SDS011;36308;46.312;25.288;2023-02-07T00:01:58;95.05;;;38.10;;
50393;SDS011;36308;46.312;25.288;2023-02-07T00:04:23;104.55;;;41.65;;
50393;SDS011;36308;46.312;25.288;2023-02-07T00:06:49;103.13;;;41.22;;
50393;SDS011;36308;46.312;25.288;2023-02-07T00:09:14;91.10;;;38.33;;
50393;SDS011;36308;46.312;25.288;2023-02-07T00:11:41;89.80;;;38.15;;
50393;SDS011;36308;46.312;25.288;2023-02-07T00:14:08;87.43;;;33.95;;
50393;SDS011;36308;46.312;25.288;2023-02-07T00:16:35;85.00;;;36.92;;
50393;SDS011;36308;46.312;25.288;2023-02-07T00:19:00;98.57;;;40.85;;
50393;SDS011;36308;46.312;25.288;2023-02-07T00:21:26;137.65;;;50.20;;
50393;SDS011;36308;46.312;25.288;2023-02-07T00:23:52;85.93;;;37.53;;
50393;SDS011;36308;46.312;25.288;2023-02-07T00:26:19;84.10;;;35.85;;
50393;SDS011;36308;46.312;25.288;2023-02-07T00:28:46;67.07;;;32.13;;
50393;SDS011;36308;46.312;25.288;2023-02-07T00:31:14;64.07;;;28.65;;
50393;SDS011;36308;46.312;25.288;2023-02-07T00:33:41;62.92;;;27.25;;
50393;SDS011;36308;46.312;25.288;2023-02-07T00:36:10;61.33;;;24.90;;
50393;SDS011;36308;46.312;25.288;2023-02-07T00:38:38;49.67;;;22.17;;
50393;SDS011;36308;46.312;25.288;2023-02-07T00:41:04;54.35;;;22.70;;
50393;SDS011;36308;46.312;25.288;2023-02-07T00:43:30;59.22;;;23.05;;
50393;SDS011;36308;46.312;25.288;2023-02-07T00:45:59;46.10;;;20.08;;
50393;SDS011;36308;46.312;25.288;2023-02-07T00:48:26;55.00;;;22.15;;
50393;SDS011;36308;46.312;25.288;2023-02-07T00:50:53;49.92;;;22.40;;
50393;SDS011;36308;46.312;25.288;2023-02-07T00:53:18;49.13;;;22.10;;
50393;SDS011;36308;46.312;25.288;2023-02-07T00:55:44;56.80;;;23.15;;
50393;SDS011;36308;46.312;25.288;2023-02-07T00:58:09;57.33;;;24.60;;
50393;SDS011;36308;46.312;25.288;2023-02-07T01:00:35;53.78;;;23.30;;
50393;SDS011;36308;46.312;25.288;2023-02-07T01:03:00;52.50;;;22.23;;
50393;SDS011;36308;46.312;25.288;2023-02-07T01:05:26;48.85;;;22.50;;
50393;SDS011;36308;46.312;25.288;2023-02-07T01:07:51;47.30;;;20.80;;
50393;SDS011;36308;46.312;25.288;2023-02-07T01:10:17;46.63;;;19.60;;
50393;SDS011;36308;46.312;25.288;2023-02-07T01:12:42;50.03;;;21.40;;
50393;SDS011;36308;46.312;25.288;2023-02-07T01:15:08;46.58;;;19.85;;
50393;SDS011;36308;46.312;25.288;2023-02-07T01:17:33;51.25;;;20.75;;
50393;SDS011;36308;46.312;25.288;2023-02-07T01:19:59;50.92;;;21.80;;
50393;SDS011;36308;46.312;25.288;2023-02-07T01:22:25;41.42;;;18.10;;
50393;SDS011;36308;46.312;25.288;2023-02-07T01:24:52;41.88;;;18.30;;
50393;SDS011;36308;46.312;25.288;2023-02-07T01:27:19;43.92;;;18.88;;
50393;SDS011;36308;46.312;25.288;2023-02-07T01:29:45;43.22;;;19.20;;
50393;SDS011;36308;46.312;25.288;2023-02-07T01:32:11;43.30;;;19.20;;
50393;SDS011;36308;46.312;25.288;2023-02-07T01:34:37;47.20;;;20.15;;
50393;SDS011;36308;46.312;25.288;2023-02-07T01:37:02;43.30;;;19.35;;
50393;SDS011;36308;46.312;25.288;2023-02-07T01:39:28;38.05;;;18.05;;
50393;SDS011;36308;46.312;25.288;2023-02-07T01:41:53;44.80;;;20.08;;
50393;SDS011;36308;46.312;25.288;2023-02-07T01:46:47;50.95;;;22.83;;
50393;SDS011;36308;46.312;25.288;2023-02-07T01:49:14;54.00;;;23.63;;
50393;SDS011;36308;46.312;25.288;2023-02-07T01:51:44;52.97;;;24.60;;
50393;SDS011;36308;46.312;25.288;2023-02-07T01:54:13;63.38;;;25.85;;
50393;SDS011;36308;46.312;25.288;2023-02-07T01:56:45;63.47;;;25.08;;
50393;SDS011;36308;46.312;25.288;2023-02-07T01:59:17;44.60;;;21.40;;
50393;SDS011;36308;46.312;25.288;2023-02-07T02:01:43;50.15;;;21.17;;
50393;SDS011;36308;46.312;25.288;2023-02-07T02:04:10;40.50;;;19.17;;
50393;SDS011;36308;46.312;25.288;2023-02-07T02:06:35;46.75;;;18.95;;
50393;SDS011;36308;46.312;25.288;2023-02-07T02:09:07;47.88;;;19.98;;
50393;SDS011;36308;46.312;25.288;2023-02-07T02:17:58;46.95;;;20.48;;
50393;SDS011;36308;46.312;25.288;2023-02-07T02:20:31;44.38;;;20.60;;
50393;SDS011;36308;46.312;25.288;2023-02-07T02:31:24;64.38;;;26.13;;
50393;SDS011;36308;46.312;25.288;2023-02-07T02:34:15;82.13;;;30.88;;
50393;SDS011;36308;46.312;25.288;2023-02-07T02:36:51;72.68;;;28.08;;
50393;SDS011;36308;46.312;25.288;2023-02-07T02:47:05;60.55;;;24.33;;
50393;SDS011;36308;46.312;25.288;2023-02-07T02:49:33;66.40;;;27.25;;
50393;SDS011;36308;46.312;25.288;2023-02-07T02:52:01;59.15;;;27.52;;
50393;SDS011;36308;46.312;25.288;2023-02-07T02:54:31;63.13;;;26.55;;
50393;SDS011;36308;46.312;25.288;2023-02-07T02:59:40;52.70;;;22.92;;
50393;SDS011;36308;46.312;25.288;2023-02-07T03:18:53;51.92;;;24.75;;
50393;SDS011;36308;46.312;25.288;2023-02-07T03:21:25;74.72;;;26.92;;
50393;SDS011;36308;46.312;25.288;2023-02-07T03:23:56;88.85;;;33.20;;
50393;SDS011;36308;46.312;25.288;2023-02-07T03:26:25;182.88;;;62.10;;
50393;SDS011;36308;46.312;25.288;2023-02-07T03:28:53;120.47;;;50.00;;
50393;SDS011;36308;46.312;25.288;2023-02-07T03:31:21;96.75;;;41.03;;
50393;SDS011;36308;46.312;25.288;2023-02-07T03:33:50;87.53;;;34.53;;
50393;SDS011;36308;46.312;25.288;2023-02-07T03:36:21;69.13;;;31.05;;
50393;SDS011;36308;46.312;25.288;2023-02-07T03:38:52;56.67;;;28.20;;
50393;SDS011;36308;46.312;25.288;2023-02-07T03:41:22;47.90;;;23.38;;
50393;SDS011;36308;46.312;25.288;2023-02-07T03:43:54;66.40;;;32.22;;
50393;SDS011;36308;46.312;25.288;2023-02-07T03:46:23;53.67;;;25.83;;
50393;SDS011;36308;46.312;25.288;2023-02-07T03:48:49;59.75;;;26.52;;
50393;SDS011;36308;46.312;25.288;2023-02-07T03:51:14;60.95;;;27.25;;
50393;SDS011;36308;46.312;25.288;2023-02-07T03:53:40;75.00;;;30.35;;
50393;SDS011;36308;46.312;25.288;2023-02-07T03:56:05;77.90;;;31.63;;
50393;SDS011;36308;46.312;25.288;2023-02-07T03:58:31;105.57;;;40.72;;
50393;SDS011;36308;46.312;25.288;2023-02-07T04:00:56;109.85;;;40.65;;
50393;SDS011;36308;46.312;25.288;2023-02-07T04:03:22;158.63;;;53.70;;
50393;SDS011;36308;46.312;25.288;2023-02-07T04:05:47;84.25;;;34.15;;
50393;SDS011;36308;46.312;25.288;2023-02-07T04:08:13;65.00;;;25.30;;
50393;SDS011;36308;46.312;25.288;2023-02-07T04:10:39;50.13;;;22.60;;
50393;SDS011;36308;46.312;25.288;2023-02-07T04:13:04;45.60;;;22.70;;
50393;SDS011;36308;46.312;25.288;2023-02-07T04:15:30;49.38;;;26.63;;
50393;SDS011;36308;46.312;25.288;2023-02-07T04:17:56;44.85;;;20.77;;
50393;SDS011;36308;46.312;25.288;2023-02-07T04:20:21;46.42;;;22.08;;
50393;SDS011;36308;46.312;25.288;2023-02-07T04:22:47;74.75;;;31.08;;
50393;SDS011;36308;46.312;25.288;2023-02-07T04:25:12;47.25;;;21.30;;
50393;SDS011;36308;46.312;25.288;2023-02-07T04:27:38;161.57;;;69.07;;
50393;SDS011;36308;46.312;25.288;2023-02-07T04:30:03;78.70;;;34.40;;
50393;SDS011;36308;46.312;25.288;2023-02-07T04:32:29;46.42;;;20.50;;
50393;SDS011;36308;46.312;25.288;2023-02-07T04:34:54;45.22;;;19.08;;
50393;SDS011;36308;46.312;25.288;2023-02-07T04:37:20;49.72;;;20.58;;
50393;SDS011;36308;46.312;25.288;2023-02-07T04:39:46;56.22;;;22.75;;
50393;SDS011;36308;46.312;25.288;2023-02-07T04:42:11;47.05;;;23.20;;
50393;SDS011;36308;46.312;25.288;2023-02-07T04:44:37;48.08;;;22.73;;
50393;SDS011;36308;46.312;25.288;2023-02-07T04:47:02;50.28;;;22.80;;
50393;SDS011;36308;46.312;25.288;2023-02-07T04:49:28;69.32;;;29.67;;
50393;SDS011;36308;46.312;25.288;2023-02-07T04:51:54;77.22;;;32.60;;
50393;SDS011;36308;46.312;25.288;2023-02-07T04:54:20;111.82;;;42.15;;
50393;SDS011;36308;46.312;25.288;2023-02-07T04:56:45;53.72;;;22.52;;
50393;SDS011;36308;46.312;25.288;2023-02-07T04:59:11;58.05;;;27.85;;
50393;SDS011;36308;46.312;25.288;2023-02-07T05:01:36;52.63;;;26.45;;
50393;SDS011;36308;46.312;25.288;2023-02-07T05:04:02;56.35;;;27.35;;
50393;SDS011;36308;46.312;25.288;2023-02-07T05:06:27;49.22;;;23.48;;
50393;SDS011;36308;46.312;25.288;2023-02-07T05:08:53;49.40;;;20.25;;
50393;SDS011;36308;46.312;25.288;2023-02-07T05:11:18;45.00;;;19.83;;
50393;SDS011;36308;46.312;25.288;2023-02-07T05:13:44;46.13;;;21.13;;
50393;SDS011;36308;46.312;25.288;2023-02-07T05:16:09;52.97;;;23.80;;
50393;SDS011;36308;46.312;25.288;2023-02-07T05:18:35;55.95;;;23.67;;
50393;SDS011;36308;46.312;25.288;2023-02-07T05:21:00;98.57;;;38.35;;
50393;SDS011;36308;46.312;25.288;2023-02-07T05:23:26;88.15;;;34.00;;
50393;SDS011;36308;46.312;25.288;2023-02-07T05:25:51;58.95;;;26.60;;
50393;SDS011;36308;46.312;25.288;2023-02-07T05:28:17;51.03;;;22.02;;
50393;SDS011;36308;46.312;25.288;2023-02-07T05:30:42;41.25;;;20.20;;
50393;SDS011;36308;46.312;25.288;2023-02-07T05:33:08;68.47;;;30.33;;
50393;SDS011;36308;46.312;25.288;2023-02-07T05:35:38;50.10;;;24.65;;
50393;SDS011;36308;46.312;25.288;2023-02-07T05:38:08;55.63;;;28.08;;
50393;SDS011;36308;46.312;25.288;2023-02-07T05:40:35;34.72;;;17.38;;
50393;SDS011;36308;46.312;25.288;2023-02-07T05:43:02;35.13;;;15.70;;
50393;SDS011;36308;46.312;25.288;2023-02-07T05:45:28;39.67;;;20.35;;
50393;SDS011;36308;46.312;25.288;2023-02-07T05:47:54;50.15;;;22.58;;
50393;SDS011;36308;46.312;25.288;2023-02-07T05:50:20;37.72;;;18.33;;
50393;SDS011;36308;46.312;25.288;2023-02-07T05:52:45;39.75;;;20.10;;
50393;SDS011;36308;46.312;25.288;2023-02-07T05:55:11;40.67;;;20.73;;
50393;SDS011;36308;46.312;25.288;2023-02-07T05:57:38;44.22;;;20.15;;
50393;SDS011;36308;46.312;25.288;2023-02-07T06:00:08;53.63;;;23.17;;
50393;SDS011;36308;46.312;25.288;2023-02-07T06:02:37;63.30;;;26.25;;
50393;SDS011;36308;46.312;25.288;2023-02-07T06:05:03;56.78;;;25.85;;
50393;SDS011;36308;46.312;25.288;2023-02-07T06:07:29;152.20;;;69.35;;
50393;SDS011;36308;46.312;25.288;2023-02-07T06:09:55;214.30;;;101.30;;
50393;SDS011;36308;46.312;25.288;2023-02-07T06:12:20;141.23;;;61.03;;
50393;SDS011;36308;46.312;25.288;2023-02-07T06:14:46;206.88;;;84.75;;
50393;SDS011;36308;46.312;25.288;2023-02-07T06:17:11;258.55;;;116.55;;
50393;SDS011;36308;46.312;25.288;2023-02-07T06:19:37;314.50;;;123.93;;
50393;SDS011;36308;46.312;25.288;2023-02-07T06:22:02;289.73;;;113.75;;
50393;SDS011;36308;46.312;25.288;2023-02-07T06:24:28;262.83;;;101.65;;
50393;SDS011;36308;46.312;25.288;2023-02-07T06:26:53;221.90;;;88.50;;
50393;SDS011;36308;46.312;25.288;2023-02-07T06:29:19;184.75;;;78.97;;
50393;SDS011;36308;46.312;25.288;2023-02-07T06:31:44;135.95;;;58.70;;
50393;SDS011;36308;46.312;25.288;2023-02-07T06:34:10;107.03;;;49.20;;
50393;SDS011;36308;46.312;25.288;2023-02-07T06:36:35;105.18;;;47.22;;
50393;SDS011;36308;46.312;25.288;2023-02-07T06:39:01;96.65;;;44.13;;
50393;SDS011;36308;46.312;25.288;2023-02-07T06:41:27;113.13;;;49.88;;
50393;SDS011;36308;46.312;25.288;2023-02-07T06:43:53;87.60;;;35.22;;
50393;SDS011;36308;46.312;25.288;2023-02-07T06:46:18;139.13;;;64.60;;
50393;SDS011;36308;46.312;25.288;2023-02-07T06:48:44;168.65;;;64.07;;
50393;SDS011;36308;46.312;25.288;2023-02-07T06:51:09;156.63;;;69.45;;
50393;SDS011;36308;46.312;25.288;2023-02-07T06:53:35;112.50;;;48.92;;
50393;SDS011;36308;46.312;25.288;2023-02-07T06:56:00;94.85;;;43.88;;
50393;SDS011;36308;46.312;25.288;2023-02-07T06:58:26;97.63;;;42.65;;
50393;SDS011;36308;46.312;25.288;2023-02-07T07:00:51;117.35;;;53.25;;
50393;SDS011;36308;46.312;25.288;2023-02-07T07:03:17;120.38;;;51.42;;
50393;SDS011;36308;46.312;25.288;2023-02-07T07:05:43;93.68;;;42.20;;
50393;SDS011;36308;46.312;25.288;2023-02-07T07:08:09;91.70;;;41.55;;
50393;SDS011;36308;46.312;25.288;2023-02-07T07:10:36;109.30;;;55.83;;
50393;SDS011;36308;46.312;25.288;2023-02-07T07:13:02;115.35;;;50.28;;
50393;SDS011;36308;46.312;25.288;2023-02-07T07:15:28;104.88;;;47.60;;
50393;SDS011;36308;46.312;25.288;2023-02-07T07:17:53;95.32;;;46.88;;
50393;SDS011;36308;46.312;25.288;2023-02-07T07:20:19;87.40;;;42.45;;
50393;SDS011;36308;46.312;25.288;2023-02-07T07:22:44;112.57;;;47.78;;
50393;SDS011;36308;46.312;25.288;2023-02-07T07:25:10;89.97;;;40.67;;
50393;SDS011;36308;46.312;25.288;2023-02-07T07:27:36;91.93;;;45.00;;
50393;SDS011;36308;46.312;25.288;2023-02-07T07:30:02;104.35;;;48.90;;
50393;SDS011;36308;46.312;25.288;2023-02-07T07:32:28;121.38;;;48.88;;
50393;SDS011;36308;46.312;25.288;2023-02-07T07:34:54;96.25;;;43.88;;
50393;SDS011;36308;46.312;25.288;2023-02-07T07:37:19;90.53;;;40.85;;
50393;SDS011;36308;46.312;25.288;2023-02-07T07:39:45;96.63;;;42.13;;
50393;SDS011;36308;46.312;25.288;2023-02-07T07:42:10;105.20;;;45.90;;
50393;SDS011;36308;46.312;25.288;2023-02-07T07:44:36;94.13;;;41.65;;
50393;SDS011;36308;46.312;25.288;2023-02-07T07:47:02;93.45;;;39.45;;
50393;SDS011;36308;46.312;25.288;2023-02-07T07:49:27;80.68;;;35.33;;
50393;SDS011;36308;46.312;25.288;2023-02-07T07:51:53;86.78;;;39.65;;
50393;SDS011;36308;46.312;25.288;2023-02-07T07:54:18;84.55;;;35.13;;
50393;SDS011;36308;46.312;25.288;2023-02-07T07:56:44;89.60;;;38.05;;
50393;SDS011;36308;46.312;25.288;2023-02-07T07:59:10;82.88;;;38.25;;
50393;SDS011;36308;46.312;25.288;2023-02-07T08:01:35;101.82;;;43.30;;
50393;SDS011;36308;46.312;25.288;2023-02-07T08:04:01;77.40;;;35.50;;
50393;SDS011;36308;46.312;25.288;2023-02-07T08:06:28;92.72;;;39.17;;
50393;SDS011;36308;46.312;25.288;2023-02-07T08:08:57;77.05;;;34.42;;
50393;SDS011;36308;46.312;25.288;2023-02-07T08:11:22;106.55;;;44.63;;
50393;SDS011;36308;46.312;25.288;2023-02-07T08:13:48;60.92;;;28.02;;
50393;SDS011;36308;46.312;25.288;2023-02-07T08:16:14;72.65;;;32.67;;
50393;SDS011;36308;46.312;25.288;2023-02-07T08:18:40;64.07;;;29.90;;
50393;SDS011;36308;46.312;25.288;2023-02-07T08:21:06;50.85;;;23.23;;
50393;SDS011;36308;46.312;25.288;2023-02-07T08:23:32;46.60;;;21.92;;
50393;SDS011;36308;46.312;25.288;2023-02-07T08:25:58;58.63;;;27.95;;
50393;SDS011;36308;46.312;25.288;2023-02-07T08:28:24;61.67;;;29.48;;
50393;SDS011;36308;46.312;25.288;2023-02-07T08:30:49;71.72;;;33.70;;
50393;SDS011;36308;46.312;25.288;2023-02-07T08:33:16;61.33;;;29.88;;
50393;SDS011;36308;46.312;25.288;2023-02-07T08:36:41;58.10;;;28.75;;
50393;SDS011;36308;46.312;25.288;2023-02-07T08:39:46;56.47;;;27.55;;
50393;SDS011;36308;46.312;25.288;2023-02-07T08:43:12;42.85;;;18.42;;
50393;SDS011;36308;46.312;25.288;2023-02-07T08:46:36;65.65;;;28.50;;
50393;SDS011;36308;46.312;25.288;2023-02-07T08:53:26;130.40;;;50.38;;
50393;SDS011;36308;46.312;25.288;2023-02-07T08:56:35;315.02;;;112.72;;
50393;SDS011;36308;46.312;25.288;2023-02-07T09:00:00;553.55;;;203.27;;
50393;SDS011;36308;46.312;25.288;2023-02-07T09:03:27;146.40;;;60.90;;
50393;SDS011;36308;46.312;25.288;2023-02-07T09:06:52;276.27;;;97.03;;
50393;SDS011;36308;46.312;25.288;2023-02-07T09:10:17;775.65;;;299.08;;
50393;SDS011;36308;46.312;25.288;2023-02-07T09:13:43;314.27;;;106.88;;
50393;SDS011;36308;46.312;25.288;2023-02-07T09:17:08;416.45;;;146.38;;
50393;SDS011;36308;46.312;25.288;2023-02-07T09:20:33;191.35;;;69.65;;
50393;SDS011;36308;46.312;25.288;2023-02-07T09:23:58;67.25;;;31.33;;
50393;SDS011;36308;46.312;25.288;2023-02-07T09:27:24;86.28;;;37.00;;
50393;SDS011;36308;46.312;25.288;2023-02-07T09:30:49;114.28;;;47.35;;
50393;SDS011;36308;46.312;25.288;2023-02-07T09:34:14;168.13;;;66.60;;
50393;SDS011;36308;46.312;25.288;2023-02-07T09:37:40;155.82;;;67.15;;
50393;SDS011;36308;46.312;25.288;2023-02-07T09:40:46;64.75;;;30.92;;
50393;SDS011;36308;46.312;25.288;2023-02-07T09:44:15;64.78;;;31.15;;
50393;SDS011;36308;46.312;25.288;2023-02-07T09:47:06;83.95;;;40.60;;
50393;SDS011;36308;46.312;25.288;2023-02-07T09:50:31;52.80;;;24.95;;
50393;SDS011;36308;46.312;25.288;2023-02-07T09:53:43;64.47;;;29.83;;
50393;SDS011;36308;46.312;25.288;2023-02-07T09:56:59;47.38;;;23.25;;
50393;SDS011;36308;46.312;25.288;2023-02-07T10:00:25;50.45;;;23.55;;
50393;SDS011;36308;46.312;25.288;2023-02-07T10:06:37;68.95;;;31.50;;
50393;SDS011;36308;46.312;25.288;2023-02-07T10:10:02;69.90;;;32.67;;
50393;SDS011;36308;46.312;25.288;2023-02-07T10:21:04;56.55;;;31.77;;
50393;SDS011;36308;46.312;25.288;2023-02-07T10:30:17;53.45;;;26.75;;
50393;SDS011;36308;46.312;25.288;2023-02-07T10:33:28;66.50;;;34.00;;
50393;SDS011;36308;46.312;25.288;2023-02-07T10:36:31;55.50;;;27.98;;
50393;SDS011;36308;46.312;25.288;2023-02-07T10:39:37;136.52;;;80.40;;
50393;SDS011;36308;46.312;25.288;2023-02-07T10:43:02;68.85;;;31.17;;
50393;SDS011;36308;46.312;25.288;2023-02-07T10:46:32;47.33;;;23.77;;
50393;SDS011;36308;46.312;25.288;2023-02-07T10:49:57;60.33;;;30.17;;
50393;SDS011;36308;46.312;25.288;2023-02-07T10:56:46;75.75;;;41.97;;
50393;SDS011;36308;46.312;25.288;2023-02-07T11:03:33;54.65;;;26.63;;
50393;SDS011;36308;46.312;25.288;2023-02-07T11:06:35;55.50;;;28.95;;
50393;SDS011;36308;46.312;25.288;2023-02-07T11:09:20;64.93;;;31.67;;
50393;SDS011;36308;46.312;25.288;2023-02-07T11:12:45;42.03;;;21.13;;
50393;SDS011;36308;46.312;25.288;2023-02-07T11:16:10;51.67;;;26.45;;
50393;SDS011;36308;46.312;25.288;2023-02-07T11:19:35;49.80;;;25.52;;
50393;SDS011;36308;46.312;25.288;2023-02-07T11:22:42;44.22;;;21.55;;
50393;SDS011;36308;46.312;25.288;2023-02-07T11:25:48;44.15;;;23.27;;
50393;SDS011;36308;46.312;25.288;2023-02-07T11:29:00;45.78;;;22.38;;
50393;SDS011;36308;46.312;25.288;2023-02-07T11:31:45;40.10;;;21.23;;
50393;SDS011;36308;46.312;25.288;2023-02-07T11:34:25;34.03;;;17.65;;
50393;SDS011;36308;46.312;25.288;2023-02-07T11:36:52;40.00;;;20.17;;
50393;SDS011;36308;46.312;25.288;2023-02-07T11:39:20;29.70;;;14.48;;
50393;SDS011;36308;46.312;25.288;2023-02-07T11:42:01;32.38;;;17.50;;
50393;SDS011;36308;46.312;25.288;2023-02-07T11:44:28;37.45;;;18.42;;
50393;SDS011;36308;46.312;25.288;2023-02-07T11:46:57;20.75;;;11.18;;
50393;SDS011;36308;46.312;25.288;2023-02-07T11:52:08;18.63;;;9.00;;
50393;SDS011;36308;46.312;25.288;2023-02-07T11:54:34;30.27;;;11.27;;
50393;SDS011;36308;46.312;25.288;2023-02-07T11:57:15;20.90;;;10.30;;
50393;SDS011;36308;46.312;25.288;2023-02-07T11:59:47;19.80;;;9.70;;
50393;SDS011;36308;46.312;25.288;2023-02-07T12:02:34;17.27;;;9.07;;
50393;SDS011;36308;46.312;25.288;2023-02-07T12:08:04;18.17;;;9.82;;
50393;SDS011;36308;46.312;25.288;2023-02-07T12:10:37;17.77;;;9.13;;
50393;SDS011;36308;46.312;25.288;2023-02-07T12:13:15;18.05;;;10.02;;
50393;SDS011;36308;46.312;25.288;2023-02-07T12:15:59;16.27;;;9.05;;
50393;SDS011;36308;46.312;25.288;2023-02-07T12:18:38;15.60;;;9.48;;
50393;SDS011;36308;46.312;25.288;2023-02-07T12:23:53;21.95;;;12.35;;
50393;SDS011;36308;46.312;25.288;2023-02-07T12:26:39;18.25;;;10.93;;
50393;SDS011;36308;46.312;25.288;2023-02-07T12:32:00;18.40;;;10.32;;
50393;SDS011;36308;46.312;25.288;2023-02-07T12:37:20;22.90;;;11.77;;
50393;SDS011;36308;46.312;25.288;2023-02-07T12:40:14;18.02;;;10.07;;
50393;SDS011;36308;46.312;25.288;2023-02-07T12:45:17;22.80;;;12.27;;
50393;SDS011;36308;46.312;25.288;2023-02-07T12:56:49;17.52;;;9.32;;
50393;SDS011;36308;46.312;25.288;2023-02-07T13:04:29;12.93;;;6.65;;
50393;SDS011;36308;46.312;25.288;2023-02-07T13:07:08;11.93;;;7.10;;
50393;SDS011;36308;46.312;25.288;2023-02-07T13:09:42;18.80;;;10.73;;
50393;SDS011;36308;46.312;25.288;2023-02-07T13:14:55;22.38;;;11.68;;
50393;SDS011;36308;46.312;25.288;2023-02-07T13:23:20;25.98;;;12.55;;
50393;SDS011;36308;46.312;25.288;2023-02-07T13:25:50;32.47;;;17.10;;
50393;SDS011;36308;46.312;25.288;2023-02-07T13:31:12;53.25;;;24.67;;
50393;SDS011;36308;46.312;25.288;2023-02-07T13:33:44;40.92;;;21.48;;
50393;SDS011;36308;46.312;25.288;2023-02-07T13:42:11;47.72;;;24.48;;
50393;SDS011;36308;46.312;25.288;2023-02-07T13:54:01;19.20;;;10.93;;
50393;SDS011;36308;46.312;25.288;2023-02-07T13:56:00;22.25;;;12.02;;
50393;SDS011;36308;46.312;25.288;2023-02-07T14:01:21;23.27;;;12.55;;
50393;SDS011;36308;46.312;25.288;2023-02-07T14:04:04;25.00;;;13.43;;
50393;SDS011;36308;46.312;25.288;2023-02-07T14:06:38;27.30;;;15.65;;
50393;SDS011;36308;46.312;25.288;2023-02-07T14:11:55;35.83;;;19.30;;
50393;SDS011;36308;46.312;25.288;2023-02-07T14:16:54;26.13;;;13.73;;
50393;SDS011;36308;46.312;25.288;2023-02-07T14:19:55;44.70;;;20.83;;
50393;SDS011;36308;46.312;25.288;2023-02-07T14:22:26;39.92;;;20.05;;
50393;SDS011;36308;46.312;25.288;2023-02-07T14:25:19;58.10;;;26.80;;
50393;SDS011;36308;46.312;25.288;2023-02-07T14:30:19;33.97;;;17.33;;
50393;SDS011;36308;46.312;25.288;2023-02-07T14:39:21;58.10;;;25.88;;
50393;SDS011;36308;46.312;25.288;2023-02-07T14:41:53;79.80;;;34.88;;
50393;SDS011;36308;46.312;25.288;2023-02-07T14:44:34;51.75;;;25.17;;
50393;SDS011;36308;46.312;25.288;2023-02-07T14:47:02;53.28;;;25.83;;
50393;SDS011;36308;46.312;25.288;2023-02-07T14:49:37;66.53;;;34.35;;
50393;SDS011;36308;46.312;25.288;2023-02-07T14:52:10;57.13;;;28.52;;
50393;SDS011;36308;46.312;25.288;2023-02-07T15:07:47;30.50;;;15.45;;
50393;SDS011;36308;46.312;25.288;2023-02-07T15:10:22;28.65;;;13.48;;
50393;SDS011;36308;46.312;25.288;2023-02-07T15:12:52;36.83;;;15.80;;
50393;SDS011;36308;46.312;25.288;2023-02-07T15:16:04;34.83;;;17.13;;
50393;SDS011;36308;46.312;25.288;2023-02-07T15:18:15;28.10;;;13.18;;
50393;SDS011;36308;46.312;25.288;2023-02-07T15:20:43;28.08;;;13.25;;
50393;SDS011;36308;46.312;25.288;2023-02-07T15:23:14;34.78;;;16.73;;
50393;SDS011;36308;46.312;25.288;2023-02-07T15:25:41;46.08;;;21.33;;
50393;SDS011;36308;46.312;25.288;2023-02-07T15:28:30;25.75;;;13.70;;
50393;SDS011;36308;46.312;25.288;2023-02-07T15:31:00;37.38;;;18.55;;
50393;SDS011;36308;46.312;25.288;2023-02-07T15:33:33;45.63;;;19.45;;
50393;SDS011;36308;46.312;25.288;2023-02-07T15:36:25;156.15;;;61.08;;
50393;SDS011;36308;46.312;25.288;2023-02-07T15:39:03;76.47;;;32.53;;
50393;SDS011;36308;46.312;25.288;2023-02-07T15:41:31;49.47;;;21.48;;
50393;SDS011;36308;46.312;25.288;2023-02-07T15:43:58;105.78;;;45.97;;
50393;SDS011;36308;46.312;25.288;2023-02-07T15:46:25;88.13;;;42.95;;
50393;SDS011;36308;46.312;25.288;2023-02-07T15:48:54;128.70;;;53.58;;
50393;SDS011;36308;46.312;25.288;2023-02-07T15:51:26;128.55;;;46.95;;
50393;SDS011;36308;46.312;25.288;2023-02-07T15:53:55;74.00;;;35.50;;
50393;SDS011;36308;46.312;25.288;2023-02-07T15:56:24;44.22;;;22.65;;
50393;SDS011;36308;46.312;25.288;2023-02-07T15:58:52;44.55;;;23.70;;
50393;SDS011;36308;46.312;25.288;2023-02-07T16:01:24;314.52;;;140.68;;
50393;SDS011;36308;46.312;25.288;2023-02-07T16:03:53;73.45;;;37.70;;
50393;SDS011;36308;46.312;25.288;2023-02-07T16:06:21;60.33;;;34.03;;
50393;SDS011;36308;46.312;25.288;2023-02-07T16:08:53;85.75;;;38.00;;
50393;SDS011;36308;46.312;25.288;2023-02-07T16:13:59;35.15;;;19.27;;
50393;SDS011;36308;46.312;25.288;2023-02-07T16:16:51;41.17;;;20.90;;
50393;SDS011;36308;46.312;25.288;2023-02-07T16:19:46;39.45;;;20.15;;
50393;SDS011;36308;46.312;25.288;2023-02-07T16:22:21;46.97;;;25.98;;
50393;SDS011;36308;46.312;25.288;2023-02-07T16:25:22;50.75;;;27.33;;
50393;SDS011;36308;46.312;25.288;2023-02-07T16:28:07;33.53;;;19.05;;
50393;SDS011;36308;46.312;25.288;2023-02-07T16:30:38;32.80;;;17.27;;
50393;SDS011;36308;46.312;25.288;2023-02-07T16:33:06;39.13;;;20.67;;
50393;SDS011;36308;46.312;25.288;2023-02-07T16:35:37;38.35;;;21.70;;
50393;SDS011;36308;46.312;25.288;2023-02-07T16:38:03;81.07;;;35.72;;
50393;SDS011;36308;46.312;25.288;2023-02-07T16:40:28;47.47;;;24.35;;
50393;SDS011;36308;46.312;25.288;2023-02-07T16:43:36;60.58;;;30.50;;
50393;SDS011;36308;46.312;25.288;2023-02-07T16:46:09;73.43;;;30.83;;
50393;SDS011;36308;46.312;25.288;2023-02-07T16:48:42;56.60;;;26.98;;
50393;SDS011;36308;46.312;25.288;2023-02-07T16:51:42;41.80;;;20.65;;
50393;SDS011;36308;46.312;25.288;2023-02-07T16:54:32;49.17;;;23.52;;
50393;SDS011;36308;46.312;25.288;2023-02-07T16:57:35;39.53;;;21.75;;
50393;SDS011;36308;46.312;25.288;2023-02-07T17:00:24;166.57;;;52.95;;
50393;SDS011;36308;46.312;25.288;2023-02-07T17:03:22;58.88;;;26.35;;
50393;SDS011;36308;46.312;25.288;2023-02-07T17:06:28;45.22;;;21.77;;
50393;SDS011;36308;46.312;25.288;2023-02-07T17:12:13;53.75;;;25.17;;
50393;SDS011;36308;46.312;25.288;2023-02-07T17:15:38;119.90;;;41.88;;
50393;SDS011;36308;46.312;25.288;2023-02-07T17:18:44;76.10;;;29.33;;
50393;SDS011;36308;46.312;25.288;2023-02-07T17:21:14;40.10;;;20.35;;
50393;SDS011;36308;46.312;25.288;2023-02-07T17:23:46;51.80;;;23.40;;
50393;SDS011;36308;46.312;25.288;2023-02-07T17:27:11;170.30;;;56.28;;
50393;SDS011;36308;46.312;25.288;2023-02-07T17:30:22;49.15;;;22.83;;
50393;SDS011;36308;46.312;25.288;2023-02-07T17:33:46;61.25;;;27.70;;
50393;SDS011;36308;46.312;25.288;2023-02-07T17:36:32;37.90;;;19.58;;
50393;SDS011;36308;46.312;25.288;2023-02-07T17:39:09;78.38;;;31.35;;
50393;SDS011;36308;46.312;25.288;2023-02-07T17:42:31;150.05;;;51.05;;
50393;SDS011;36308;46.312;25.288;2023-02-07T17:45:39;37.58;;;19.20;;
50393;SDS011;36308;46.312;25.288;2023-02-07T17:49:05;55.67;;;24.83;;